Time;durP1;ratioP1;P1;durP2;ratioP2;P2;SDS_P1;SDS_P2;PMS_P1;PMS_P2;Temp;Humidity;BMP_temperature;BMP_pressure;BME280_temperature;BME280_humidity;BME280_pressure;Samples;Min_cycle;Max_cycle;Signal;HPM_P1;HPM_P2
2023/09/20 00:02:13;;;;;;;0.77;0.75;;;17.30;99.90;;;;;;5030793;28;20218;-75
2023/09/20 00:04:42;;;;;;;1.52;0.95;;;17.30;99.90;;;;;;5030979;28;20205;-75
2023/09/20 00:07:10;;;;;;;2.08;1.00;;;17.30;99.90;;;;;;5022666;28;20198;-75
2023/09/20 00:09:38;;;;;;;3.67;0.90;;;17.30;99.90;;;;;;5030636;28;20710;-75
2023/09/20 00:12:07;;;;;;;2.78;0.90;;;17.40;99.90;;;;;;5030111;28;20262;-75
2023/09/20 00:14:35;;;;;;;1.52;0.90;;;17.40;99.90;;;;;;5032438;28;20207;-75
2023/09/20 00:17:03;;;;;;;0.70;0.70;;;17.40;99.90;;;;;;5027184;28;20285;-75
2023/09/20 00:19:34;;;;;;;2.58;0.90;;;17.40;99.90;;;;;;5021835;28;20806;-75
2023/09/20 00:22:02;;;;;;;1.50;1.00;;;17.50;99.90;;;;;;5030278;28;20221;-75
2023/09/20 00:24:31;;;;;;;1.00;0.70;;;17.50;99.90;;;;;;5022493;28;20246;-75
2023/09/20 00:26:59;;;;;;;1.05;0.73;;;17.40;99.90;;;;;;5028025;28;20280;-75
2023/09/20 00:29:27;;;;;;;2.30;0.70;;;17.50;99.90;;;;;;5026449;28;20203;-75
2023/09/20 00:31:55;;;;;;;0.77;0.77;;;17.50;99.90;;;;;;5030542;28;20260;-76
2023/09/20 00:34:24;;;;;;;1.70;0.65;;;17.50;99.90;;;;;;5030659;28;20252;-76
2023/09/20 00:36:53;;;;;;;2.88;0.90;;;17.50;99.90;;;;;;5030699;28;20209;-76
2023/09/20 00:39:20;;;;;;;4.00;0.82;;;17.50;99.90;;;;;;5030470;28;20907;-76
2023/09/20 00:41:49;;;;;;;5.95;1.10;;;17.50;99.90;;;;;;5022866;28;20312;-76
2023/09/20 00:44:17;;;;;;;2.05;1.20;;;17.40;99.90;;;;;;5030803;28;20264;-76
2023/09/20 00:46:46;;;;;;;2.65;1.08;;;17.40;99.90;;;;;;5030669;28;20668;-75
2023/09/20 00:49:14;;;;;;;1.88;1.02;;;17.40;99.90;;;;;;5030470;28;20676;-76
2023/09/20 00:51:45;;;;;;;1.17;0.88;;;17.40;99.90;;;;;;5028489;28;20239;-76
2023/09/20 00:54:14;;;;;;;2.15;0.88;;;17.40;99.90;;;;;;5018350;28;20203;-75
2023/09/20 00:56:42;;;;;;;2.45;1.00;;;17.40;99.90;;;;;;5023047;28;20234;-75
2023/09/20 00:59:11;;;;;;;1.92;0.90;;;17.40;99.90;;;;;;5030870;28;20238;-75
2023/09/20 01:01:39;;;;;;;0.82;0.80;;;17.40;99.90;;;;;;5030250;28;20222;-75
2023/09/20 01:04:07;;;;;;;3.15;1.10;;;17.40;99.90;;;;;;5030907;28;20210;-75
2023/09/20 01:06:36;;;;;;;4.20;0.90;;;17.40;99.90;;;;;;5030409;28;20213;-75
2023/09/20 01:09:04;;;;;;;1.20;0.80;;;17.40;99.90;;;;;;5030558;28;20202;-76
2023/09/20 01:11:34;;;;;;;1.77;0.90;;;17.40;99.90;;;;;;5030888;28;20687;-76
2023/09/20 01:14:02;;;;;;;1.33;1.10;;;17.40;99.90;;;;;;5029824;28;20285;-75
2023/09/20 01:16:32;;;;;;;5.75;1.13;;;17.50;99.90;;;;;;5030077;28;20611;-75
2023/09/20 01:19:05;;;;;;;2.17;1.05;;;17.40;99.90;;;;;;5025451;28;20202;-75
2023/09/20 01:21:40;;;;;;;1.30;0.80;;;17.40;99.90;;;;;;5029742;28;20226;-75
2023/09/20 01:24:09;;;;;;;1.23;0.63;;;17.40;99.90;;;;;;5029561;28;20214;-76
2023/09/20 01:26:38;;;;;;;1.38;0.90;;;17.40;99.90;;;;;;5028480;28;20241;-75
2023/09/20 01:29:06;;;;;;;1.63;0.95;;;17.40;99.90;;;;;;5027977;28;20911;-74
2023/09/20 01:31:37;;;;;;;2.55;0.70;;;17.30;99.90;;;;;;5029905;28;20230;-74
2023/09/20 01:34:05;;;;;;;1.42;0.80;;;17.20;99.90;;;;;;5025864;28;20264;-73
2023/09/20 01:36:34;;;;;;;3.33;1.00;;;17.30;99.90;;;;;;5023701;28;20214;-73
2023/09/20 01:39:09;;;;;;;4.50;1.17;;;17.20;99.90;;;;;;5031391;28;20209;-74
2023/09/20 01:41:37;;;;;;;2.25;0.70;;;17.20;99.90;;;;;;5032195;28;20225;-75
2023/09/20 01:44:06;;;;;;;4.15;1.23;;;17.20;99.90;;;;;;5033094;28;20679;-75
2023/09/20 01:46:36;;;;;;;3.95;1.27;;;17.20;99.90;;;;;;5032989;28;20237;-75
2023/09/20 01:49:05;;;;;;;1.33;0.88;;;17.10;99.90;;;;;;5029634;28;20202;-76
2023/09/20 01:51:33;;;;;;;5.40;1.17;;;17.10;99.90;;;;;;5032938;28;20226;-75
2023/09/20 01:54:03;;;;;;;0.93;0.93;;;17.00;99.90;;;;;;5033475;28;20206;-75
2023/09/20 01:56:33;;;;;;;1.50;1.08;;;17.00;99.90;;;;;;5031743;28;20210;-74
2023/09/20 01:59:01;;;;;;;2.50;0.90;;;17.00;99.90;;;;;;5026335;28;20201;-75
2023/09/20 02:01:29;;;;;;;2.15;1.08;;;17.00;99.90;;;;;;5032388;28;20237;-75
2023/09/20 02:03:57;;;;;;;1.25;0.90;;;17.00;99.90;;;;;;5028169;28;20830;-77
2023/09/20 02:06:26;;;;;;;1.05;0.77;;;17.00;99.90;;;;;;5032753;28;20695;-77
2023/09/20 02:08:54;;;;;;;1.33;0.95;;;16.90;99.90;;;;;;5031923;28;20296;-77
2023/09/20 02:11:21;;;;;;;3.55;1.23;;;16.90;99.90;;;;;;5029657;28;20214;-76
2023/09/20 02:13:51;;;;;;;2.85;1.00;;;16.90;99.90;;;;;;5032964;28;20272;-76
2023/09/20 02:16:19;;;;;;;3.85;1.08;;;16.80;99.90;;;;;;5032438;28;20209;-75
2023/09/20 02:18:48;;;;;;;2.58;1.27;;;16.90;99.90;;;;;;5028673;28;20724;-75
2023/09/20 02:21:16;;;;;;;2.08;1.10;;;16.90;99.90;;;;;;5032377;28;20201;-76
2023/09/20 02:23:44;;;;;;;1.95;1.40;;;16.90;99.90;;;;;;5032755;28;20264;-76
2023/09/20 02:26:13;;;;;;;6.35;1.20;;;16.90;99.90;;;;;;5037992;28;20262;-76
2023/09/20 02:28:42;;;;;;;2.65;1.20;;;16.90;99.90;;;;;;5031240;28;20806;-76
2023/09/20 02:31:12;;;;;;;2.47;1.25;;;16.80;99.90;;;;;;5032454;28;20210;-76
2023/09/20 02:33:40;;;;;;;1.23;1.00;;;16.90;99.90;;;;;;5029669;28;20582;-77
2023/09/20 02:36:11;;;;;;;3.45;1.27;;;16.80;99.90;;;;;;5032465;28;20252;-76
2023/09/20 02:38:39;;;;;;;3.60;1.05;;;16.80;99.90;;;;;;5032175;28;20293;-76
2023/09/20 02:41:08;;;;;;;0.90;0.90;;;16.80;99.90;;;;;;5032777;28;20210;-76
2023/09/20 02:43:38;;;;;;;3.35;1.20;;;16.80;99.90;;;;;;5029953;28;20216;-77
2023/09/20 02:46:07;;;;;;;3.47;1.23;;;16.80;99.90;;;;;;5031961;28;20682;-76
2023/09/20 02:48:36;;;;;;;2.10;1.10;;;16.80;99.90;;;;;;5032531;28;20246;-76
2023/09/20 02:51:05;;;;;;;1.55;1.20;;;16.80;99.90;;;;;;5032248;28;20248;-76
2023/09/20 02:53:35;;;;;;;3.50;1.08;;;16.80;99.90;;;;;;5032495;28;20284;-76
2023/09/20 02:56:05;;;;;;;1.42;1.33;;;16.80;99.90;;;;;;5032477;28;20209;-76
2023/09/20 02:58:37;;;;;;;2.95;1.70;;;16.80;99.90;;;;;;5031853;28;20210;-76
2023/09/20 03:01:08;;;;;;;4.38;1.27;;;16.80;99.90;;;;;;5035423;28;20571;-76
2023/09/20 03:03:37;;;;;;;1.02;1.02;;;16.80;99.90;;;;;;5031966;28;20317;-76
2023/09/20 03:06:09;;;;;;;1.20;1.10;;;16.80;99.90;;;;;;5029950;28;20206;-76
2023/09/20 03:08:41;;;;;;;1.75;1.35;;;16.80;99.90;;;;;;5031084;28;20672;-76
2023/09/20 03:11:10;;;;;;;1.58;1.10;;;16.80;99.90;;;;;;5032650;28;20210;-78
2023/09/20 03:13:38;;;;;;;2.58;1.20;;;16.90;99.90;;;;;;5033390;28;20808;-78
2023/09/20 03:16:06;;;;;;;2.20;1.45;;;16.80;99.90;;;;;;5028094;28;20288;-78
2023/09/20 03:18:34;;;;;;;2.92;1.20;;;16.90;99.90;;;;;;5032028;28;20220;-78
2023/09/20 03:21:08;;;;;;;2.75;1.48;;;16.90;99.90;;;;;;5033201;28;20582;-78
2023/09/20 03:23:38;;;;;;;3.08;1.48;;;16.90;99.90;;;;;;5032174;28;20211;-78
2023/09/20 03:26:06;;;;;;;4.70;1.40;;;16.80;99.90;;;;;;5029126;28;20297;-78
2023/09/20 03:28:35;;;;;;;1.58;1.23;;;16.80;99.90;;;;;;5030917;28;20242;-76
2023/09/20 03:31:06;;;;;;;6.82;1.55;;;16.70;99.90;;;;;;5030709;28;20718;-76
2023/09/20 03:33:34;;;;;;;1.25;1.25;;;16.80;99.90;;;;;;5031256;28;20222;-76
2023/09/20 03:36:09;;;;;;;2.08;1.42;;;16.70;99.90;;;;;;5030376;28;20281;-76
2023/09/20 03:38:39;;;;;;;3.42;1.40;;;16.70;99.90;;;;;;5027002;28;20561;-77
2023/09/20 03:41:10;;;;;;;1.40;1.35;;;16.60;99.90;;;;;;5031273;28;20210;-76
2023/09/20 03:43:40;;;;;;;2.85;1.40;;;16.60;99.90;;;;;;5031506;28;20202;-77
2023/09/20 03:46:09;;;;;;;4.57;1.55;;;16.70;99.90;;;;;;5031494;28;20213;-77
2023/09/20 03:48:37;;;;;;;3.65;1.38;;;16.60;99.90;;;;;;5028985;28;20204;-77
2023/09/20 03:51:07;;;;;;;2.60;1.30;;;16.70;99.90;;;;;;5032599;28;20229;-77
2023/09/20 03:53:37;;;;;;;2.50;1.67;;;16.60;99.90;;;;;;5029616;28;20272;-77
2023/09/20 03:56:08;;;;;;;5.28;1.48;;;16.60;99.90;;;;;;5031107;28;20205;-77
2023/09/20 03:58:36;;;;;;;4.65;1.30;;;16.60;99.90;;;;;;5031432;28;20260;-77
2023/09/20 04:01:05;;;;;;;2.17;1.55;;;16.50;99.90;;;;;;5031608;28;20206;-77
2023/09/20 04:03:34;;;;;;;4.13;1.40;;;16.50;99.90;;;;;;5031098;28;20241;-77
2023/09/20 04:06:03;;;;;;;3.65;1.73;;;16.40;99.90;;;;;;5029642;28;20707;-76
2023/09/20 04:08:31;;;;;;;3.60;1.52;;;16.40;99.90;;;;;;5028663;28;20210;-74
2023/09/20 04:10:59;;;;;;;2.60;1.20;;;16.40;99.90;;;;;;5022401;28;20236;-75
2023/09/20 04:13:29;;;;;;;5.88;1.80;;;16.40;99.90;;;;;;5030068;28;20696;-75
2023/09/20 04:15:57;;;;;;;4.20;1.30;;;16.40;99.90;;;;;;5029263;28;20242;-76
2023/09/20 04:18:26;;;;;;;2.08;1.42;;;16.40;99.90;;;;;;5029389;28;20198;-78
2023/09/20 04:20:54;;;;;;;2.65;1.10;;;16.40;99.90;;;;;;5030338;28;20220;-76
2023/09/20 04:23:22;;;;;;;3.33;1.55;;;16.50;99.90;;;;;;5029950;28;20311;-75
2023/09/20 04:25:51;;;;;;;2.65;1.27;;;16.50;99.90;;;;;;5030035;28;20199;-76
2023/09/20 04:28:19;;;;;;;2.67;1.80;;;16.50;99.90;;;;;;5027662;28;20203;-76
2023/09/20 04:30:49;;;;;;;3.38;1.35;;;16.50;99.90;;;;;;5026620;28;20198;-76
2023/09/20 04:33:17;;;;;;;4.18;1.65;;;16.40;99.90;;;;;;5029342;28;20298;-75
2023/09/20 04:35:47;;;;;;;3.42;1.52;;;16.40;99.90;;;;;;5030358;28;20285;-76
2023/09/20 04:38:15;;;;;;;1.77;1.65;;;16.40;99.90;;;;;;5022546;28;20674;-77
2023/09/20 04:40:43;;;;;;;4.50;1.58;;;16.40;99.90;;;;;;5030405;28;20737;-76
2023/09/20 04:43:14;;;;;;;11.18;1.75;;;16.40;99.90;;;;;;5030424;28;20230;-76
2023/09/20 04:45:43;;;;;;;3.47;1.58;;;16.30;99.90;;;;;;5029655;28;20867;-76
2023/09/20 04:48:13;;;;;;;5.40;1.70;;;16.30;99.90;;;;;;5028849;28;20206;-77
2023/09/20 04:50:41;;;;;;;4.30;2.10;;;16.30;99.90;;;;;;5025849;28;20214;-76
2023/09/20 04:53:09;;;;;;;1.63;1.40;;;16.30;99.90;;;;;;5026207;28;20225;-76
2023/09/20 04:55:37;;;;;;;3.25;1.40;;;16.40;99.90;;;;;;5029752;28;20198;-77
2023/09/20 04:58:06;;;;;;;5.53;1.70;;;16.30;99.90;;;;;;5030283;28;20782;-76
2023/09/20 05:00:37;;;;;;;8.10;1.80;;;16.30;99.90;;;;;;5030156;28;20204;-76
2023/09/20 05:03:05;;;;;;;1.83;1.23;;;16.30;99.90;;;;;;5023097;28;20780;-76
2023/09/20 05:05:35;;;;;;;1.55;1.38;;;16.30;99.90;;;;;;5030476;28;20637;-76
2023/09/20 05:08:03;;;;;;;5.82;1.70;;;16.30;99.90;;;;;;5030332;28;20769;-78
2023/09/20 05:10:32;;;;;;;1.50;1.48;;;16.30;99.90;;;;;;5034277;28;20210;-76
2023/09/20 05:13:00;;;;;;;1.58;1.33;;;16.30;99.90;;;;;;5032684;28;20232;-75
2023/09/20 05:15:27;;;;;;;2.33;1.50;;;16.30;99.90;;;;;;5033133;28;20359;-76
2023/09/20 05:17:56;;;;;;;1.73;1.30;;;16.30;99.90;;;;;;5033777;28;20214;-75
2023/09/20 05:20:24;;;;;;;3.17;1.77;;;16.20;99.90;;;;;;5033938;28;20214;-76
2023/09/20 05:22:53;;;;;;;3.92;1.45;;;16.30;99.90;;;;;;5033939;28;20280;-77
2023/09/20 05:25:21;;;;;;;1.95;1.30;;;16.30;99.90;;;;;;5034197;28;20199;-77
2023/09/20 05:27:49;;;;;;;3.88;1.63;;;16.20;99.90;;;;;;5034558;28;20232;-79
2023/09/20 05:30:18;;;;;;;1.60;1.50;;;16.30;99.90;;;;;;5032911;28;20290;-75
2023/09/20 05:32:50;;;;;;;5.22;1.77;;;16.20;99.90;;;;;;5024718;28;20226;-74
2023/09/20 05:35:18;;;;;;;3.00;1.45;;;16.20;99.90;;;;;;5030545;28;20700;-75
2023/09/20 05:37:46;;;;;;;3.33;1.48;;;16.20;99.90;;;;;;5033626;28;20202;-75
2023/09/20 05:40:17;;;;;;;1.85;1.67;;;16.20;99.90;;;;;;5030951;28;20298;-74
2023/09/20 05:42:46;;;;;;;4.40;2.00;;;16.30;99.90;;;;;;5033655;28;20266;-74
2023/09/20 05:45:14;;;;;;;3.47;1.65;;;16.30;99.90;;;;;;5033539;28;20619;-74
2023/09/20 05:47:43;;;;;;;2.10;1.70;;;16.30;99.90;;;;;;5024813;28;20199;-73
2023/09/20 05:50:14;;;;;;;2.67;1.35;;;16.30;99.90;;;;;;5014160;28;20230;-73
2023/09/20 05:52:43;;;;;;;3.58;1.67;;;16.30;99.90;;;;;;5031220;28;20257;-74
2023/09/20 05:55:13;;;;;;;4.13;1.65;;;16.40;99.90;;;;;;5033262;28;20272;-74
2023/09/20 05:57:43;;;;;;;3.28;1.92;;;16.40;99.90;;;;;;5032149;28;20237;-73
2023/09/20 06:00:16;;;;;;;5.25;2.03;;;16.40;99.90;;;;;;5033544;28;20246;-73
2023/09/20 06:02:44;;;;;;;3.63;2.20;;;16.40;99.90;;;;;;5033767;28;20222;-73
2023/09/20 06:05:14;;;;;;;2.22;1.90;;;16.50;99.90;;;;;;5030600;28;20669;-74
2023/09/20 06:07:44;;;;;;;2.13;1.55;;;16.50;99.90;;;;;;5030640;28;20198;-73
2023/09/20 06:10:12;;;;;;;2.15;1.95;;;16.50;99.90;;;;;;5033089;28;20198;-73
2023/09/20 06:12:40;;;;;;;2.17;1.75;;;16.60;99.90;;;;;;5033460;28;20218;-74
2023/09/20 06:15:13;;;;;;;1.92;1.83;;;16.60;99.90;;;;;;5029505;28;20660;-73
2023/09/20 06:17:42;;;;;;;4.50;2.05;;;16.60;99.90;;;;;;5030024;28;20260;-76
2023/09/20 06:20:12;;;;;;;2.22;1.95;;;16.60;99.90;;;;;;5028202;28;20211;-73
2023/09/20 06:22:40;;;;;;;4.13;2.08;;;16.60;99.90;;;;;;5030113;28;20228;-73
2023/09/20 06:25:10;;;;;;;5.22;2.05;;;16.70;99.90;;;;;;5025214;28;20218;-73
2023/09/20 06:27:39;;;;;;;2.97;1.95;;;16.70;99.90;;;;;;5024959;28;20554;-74
2023/09/20 06:30:12;;;;;;;1.88;1.73;;;16.70;99.90;;;;;;5029477;28;20277;-73
2023/09/20 06:32:42;;;;;;;2.40;2.20;;;16.80;99.90;;;;;;5029710;28;20222;-73
2023/09/20 06:35:10;;;;;;;2.25;2.00;;;16.80;99.90;;;;;;5025044;28;20219;-73
2023/09/20 06:37:38;;;;;;;1.85;1.75;;;16.80;99.90;;;;;;5032738;28;20210;-74
2023/09/20 06:40:16;;;;;;;3.30;2.33;;;16.80;99.90;;;;;;5027510;28;20199;-73
2023/09/20 06:42:44;;;;;;;5.75;2.17;;;16.90;99.90;;;;;;5028398;28;20315;-74
2023/09/20 06:45:12;;;;;;;2.15;1.95;;;16.90;99.90;;;;;;5031531;28;20194;-75
2023/09/20 06:47:43;;;;;;;4.15;1.90;;;16.90;99.90;;;;;;5022786;28;20260;-73
2023/09/20 06:50:12;;;;;;;5.85;2.00;;;17.00;99.90;;;;;;5030889;28;20209;-73
2023/09/20 06:52:42;;;;;;;4.80;2.42;;;17.00;99.90;;;;;;5023076;28;20276;-74
2023/09/20 06:55:13;;;;;;;5.32;2.00;;;17.10;99.90;;;;;;5032630;28;20241;-73
2023/09/20 06:57:41;;;;;;;6.10;2.17;;;17.10;99.90;;;;;;5024225;28;20234;-74
2023/09/20 07:00:23;;;;;;;2.25;2.08;;;17.20;99.90;;;;;;5024594;28;20671;-74
2023/09/20 07:02:57;;;;;;;5.55;1.90;;;17.20;99.90;;;;;;5024526;28;20308;-73
2023/09/20 07:05:28;;;;;;;7.75;2.28;;;17.20;99.90;;;;;;5026527;28;20291;-73
2023/09/20 07:07:58;;;;;;;3.33;2.10;;;17.20;99.90;;;;;;5030858;28;20206;-74
2023/09/20 07:10:28;;;;;;;3.70;2.22;;;17.20;99.90;;;;;;5032189;28;20288;-73
2023/09/20 07:12:56;;;;;;;6.45;2.05;;;17.30;99.90;;;;;;5032903;28;20238;-73
2023/09/20 07:15:25;;;;;;;2.28;1.88;;;17.30;99.90;;;;;;5032275;28;20262;-73
2023/09/20 07:17:59;;;;;;;3.67;1.98;;;17.40;99.90;;;;;;5032077;28;20209;-73
2023/09/20 07:20:29;;;;;;;3.55;1.92;;;17.40;99.90;;;;;;5031694;28;20671;-74
2023/09/20 07:22:58;;;;;;;4.88;2.40;;;17.50;99.90;;;;;;5029896;28;20332;-73
2023/09/20 07:25:27;;;;;;;2.28;2.10;;;17.50;99.90;;;;;;5031617;28;20527;-74
2023/09/20 07:27:58;;;;;;;2.58;1.80;;;17.60;99.90;;;;;;5031536;28;20585;-73
2023/09/20 07:30:31;;;;;;;3.97;2.03;;;17.60;99.90;;;;;;5031967;28;20553;-74
2023/09/20 07:33:01;;;;;;;2.75;1.80;;;17.70;99.90;;;;;;5031911;28;20237;-74
2023/09/20 07:35:47;;;;;;;1.90;1.77;;;17.70;99.90;;;;;;5031042;28;20228;-73
2023/09/20 07:38:25;;;;;;;4.20;2.40;;;17.80;99.90;;;;;;5031536;28;20202;-73
2023/09/20 07:40:53;;;;;;;4.85;2.15;;;17.80;99.90;;;;;;5030764;28;20672;-72
2023/09/20 07:43:21;;;;;;;5.57;1.98;;;17.90;99.90;;;;;;5031011;28;20303;-73
2023/09/20 07:45:56;;;;;;;7.10;2.25;;;18.00;99.90;;;;;;5031144;28;20714;-72
2023/09/20 07:48:27;;;;;;;4.75;2.47;;;18.00;99.90;;;;;;5031500;28;20248;-72
2023/09/20 07:50:56;;;;;;;5.50;2.30;;;18.10;99.90;;;;;;5031342;28;20206;-73
2023/09/20 07:53:25;;;;;;;5.55;2.50;;;18.20;99.90;;;;;;5031301;28;20320;-73
2023/09/20 07:55:57;;;;;;;2.60;2.22;;;18.30;99.90;;;;;;5031132;28;20221;-71
2023/09/20 07:58:26;;;;;;;4.95;2.42;;;18.50;99.90;;;;;;5030913;28;20206;-72
2023/09/20 08:00:56;;;;;;;4.45;2.40;;;18.60;99.90;;;;;;5031399;28;20206;-71
2023/09/20 08:03:24;;;;;;;5.20;2.35;;;18.80;99.90;;;;;;5031136;28;20329;-72
2023/09/20 08:05:54;;;;;;;4.63;2.35;;;18.90;99.90;;;;;;5030743;28;20206;-72
2023/09/20 08:08:23;;;;;;;6.30;2.50;;;19.00;99.90;;;;;;5030789;28;20202;-72
2023/09/20 08:10:51;;;;;;;4.88;2.03;;;19.00;99.90;;;;;;5031061;28;20236;-72
2023/09/20 08:13:37;;;;;;;4.28;1.90;;;19.00;99.90;;;;;;5031449;28;20208;-72
2023/09/20 08:16:09;;;;;;;4.63;2.35;;;19.10;99.90;;;;;;5030736;28;20222;-72
2023/09/20 08:21:24;;;;;;;3.03;2.40;;;19.20;99.90;;;;;;5030922;28;20245;-72
2023/09/20 08:59:54;;;;;;;3.25;1.88;;;19.70;99.90;;;;;;5015123;28;20711;-72
2023/09/20 09:02:22;;;;;;;7.28;2.08;;;19.80;99.90;;;;;;5015024;28;20223;-72
2023/09/20 09:04:52;;;;;;;2.17;1.65;;;20.00;99.90;;;;;;5014899;28;20682;-72
2023/09/20 09:07:20;;;;;;;3.70;1.13;;;20.20;99.90;;;;;;5014467;28;20194;-72
2023/09/20 09:09:49;;;;;;;5.07;1.48;;;20.40;99.90;;;;;;5015161;28;20202;-72
2023/09/20 09:12:18;;;;;;;1.58;1.48;;;20.70;99.90;;;;;;5014671;28;20222;-73
2023/09/20 09:14:48;;;;;;;3.45;1.58;;;20.90;99.90;;;;;;5022148;28;20714;-72
2023/09/20 09:17:16;;;;;;;6.13;1.27;;;21.20;99.90;;;;;;5022348;28;20775;-72
2023/09/20 09:19:44;;;;;;;2.70;1.75;;;21.30;99.90;;;;;;5026423;28;20208;-72
2023/09/20 09:22:14;;;;;;;3.22;1.35;;;21.50;99.90;;;;;;5033685;28;20226;-72
2023/09/20 09:24:43;;;;;;;6.13;1.30;;;21.50;99.90;;;;;;5029781;28;20245;-73
2023/09/20 09:27:11;;;;;;;2.03;1.80;;;21.50;99.90;;;;;;5034106;28;20278;-72
2023/09/20 09:29:42;;;;;;;3.55;1.42;;;21.70;99.90;;;;;;5033192;28;20288;-72
2023/09/20 09:32:10;;;;;;;2.90;1.40;;;21.80;99.90;;;;;;5034409;28;20226;-72
2023/09/20 09:34:38;;;;;;;3.28;1.40;;;22.00;99.90;;;;;;5036374;28;20213;-72
2023/09/20 09:37:06;;;;;;;2.88;1.33;;;22.20;99.90;;;;;;5030758;28;20684;-72
2023/09/20 09:39:36;;;;;;;6.35;1.40;;;22.40;99.90;;;;;;5032526;28;20293;-72
2023/09/20 09:42:06;;;;;;;4.70;1.30;;;22.50;99.90;;;;;;5035317;28;20233;-72
2023/09/20 09:44:49;;;;;;;2.42;1.30;;;22.60;99.90;;;;;;5031259;28;20202;-72
2023/09/20 09:47:18;;;;;;;2.35;1.10;;;22.90;99.90;;;;;;5033963;28;20198;-72
2023/09/20 09:49:48;;;;;;;1.92;1.40;;;23.00;99.90;;;;;;5033865;28;20236;-72
2023/09/20 09:52:17;;;;;;;3.45;1.27;;;23.00;99.90;;;;;;5030178;28;20229;-72
2023/09/20 09:54:45;;;;;;;1.83;1.42;;;23.20;99.90;;;;;;5033512;28;20698;-73
2023/09/20 09:57:13;;;;;;;2.60;1.20;;;23.50;99.90;;;;;;5032089;28;20301;-73
2023/09/20 09:59:41;;;;;;;1.85;1.17;;;23.90;99.90;;;;;;5032873;28;20240;-72
2023/09/20 10:02:14;;;;;;;3.30;1.25;;;24.40;99.90;;;;;;5038702;28;20226;-72
2023/09/20 10:04:42;;;;;;;2.53;1.10;;;24.70;99.90;;;;;;5032062;28;20202;-72
2023/09/20 10:07:10;;;;;;;5.20;1.10;;;25.10;99.90;;;;;;5031978;28;20297;-72
2023/09/20 10:09:39;;;;;;;1.40;1.13;;;25.50;99.90;;;;;;5032966;28;20329;-72
2023/09/20 10:12:08;;;;;;;2.20;1.20;;;25.80;99.90;;;;;;5032051;28;20620;-72
2023/09/20 10:14:37;;;;;;;2.03;1.05;;;26.10;99.90;;;;;;5035264;28;20743;-72
2023/09/20 10:17:06;;;;;;;2.40;1.00;;;26.40;99.90;;;;;;5031577;28;20591;-73
2023/09/20 10:19:38;;;;;;;1.02;0.90;;;26.50;99.90;;;;;;5013613;28;20676;-72
2023/09/20 10:22:09;;;;;;;3.15;1.00;;;26.70;99.90;;;;;;5013450;28;20317;-72
2023/09/20 10:24:50;;;;;;;1.90;1.17;;;26.70;99.90;;;;;;5024829;28;20296;-72
2023/09/20 10:27:19;;;;;;;4.22;1.38;;;26.70;99.90;;;;;;5029608;28;20256;-73
2023/09/20 10:30:01;;;;;;;1.83;1.42;;;26.40;99.90;;;;;;5031874;28;20198;-73
2023/09/20 10:32:53;;;;;;;2.47;1.10;;;26.10;99.90;;;;;;5025993;28;20230;-72
2023/09/20 10:35:27;;;;;;;1.38;1.10;;;26.10;99.90;;;;;;5026939;28;20206;-73
2023/09/20 10:38:25;;;;;;;3.05;1.10;;;25.80;99.90;;;;;;5034729;28;20228;-72
2023/09/20 10:41:00;;;;;;;1.95;1.02;;;25.70;99.90;;;;;;5028643;28;20213;-72
2023/09/20 10:43:51;;;;;;;1.98;1.10;;;25.80;99.90;;;;;;5025342;28;20640;-73
2023/09/20 10:46:22;;;;;;;1.02;0.70;;;25.90;99.90;;;;;;5032621;28;20233;-72
2023/09/20 10:48:51;;;;;;;3.17;1.17;;;26.00;99.90;;;;;;5030613;28;20201;-72
2023/09/20 10:51:43;;;;;;;1.05;1.00;;;26.00;99.90;;;;;;5031058;28;20210;-72
2023/09/20 10:54:25;;;;;;;3.70;1.05;;;26.30;99.90;;;;;;5022621;28;20210;-72
2023/09/20 10:57:02;;;;;;;2.95;1.13;;;26.40;99.90;;;;;;5012772;28;20233;-72
2023/09/20 10:59:31;;;;;;;1.15;0.98;;;26.60;99.90;;;;;;5022460;28;20244;-72
2023/09/20 11:02:05;;;;;;;1.40;1.00;;;26.80;99.90;;;;;;5032418;28;20275;-73
2023/09/20 11:04:34;;;;;;;1.98;1.10;;;26.80;99.90;;;;;;5032908;28;20210;-73
2023/09/20 11:07:03;;;;;;;1.23;1.13;;;27.00;99.90;;;;;;5031380;28;20233;-72
2023/09/20 11:09:34;;;;;;;1.35;0.98;;;27.20;99.90;;;;;;5012779;28;20207;-72
2023/09/20 11:12:07;;;;;;;1.33;1.10;;;27.30;99.90;;;;;;5012436;28;20697;-73
2023/09/20 11:14:36;;;;;;;1.58;1.00;;;27.40;99.90;;;;;;5012856;28;20893;-72
2023/09/20 11:17:08;;;;;;;1.10;1.00;;;27.10;99.90;;;;;;5012378;28;20226;-72
2023/09/20 11:19:38;;;;;;;1.83;1.08;;;26.80;99.90;;;;;;5017015;28;20252;-72
2023/09/20 11:22:07;;;;;;;1.20;0.90;;;26.90;99.90;;;;;;5034162;28;20284;-72
2023/09/20 11:24:37;;;;;;;5.10;1.08;;;27.10;99.90;;;;;;5027055;28;20214;-72
2023/09/20 11:27:05;;;;;;;2.92;1.08;;;27.10;99.90;;;;;;5012519;28;20256;-72
2023/09/20 11:29:36;;;;;;;1.55;1.15;;;26.80;99.90;;;;;;5012623;28;20624;-72
2023/09/20 11:32:09;;;;;;;1.85;0.90;;;26.70;99.90;;;;;;5012383;28;20614;-72
2023/09/20 11:34:49;;;;;;;2.40;1.17;;;26.80;99.90;;;;;;5015238;28;20237;-72
2023/09/20 11:37:19;;;;;;;1.95;0.90;;;27.20;99.90;;;;;;5029058;28;20226;-72
2023/09/20 11:39:47;;;;;;;3.08;0.88;;;27.70;99.90;;;;;;5032261;28;20210;-72
2023/09/20 11:42:27;;;;;;;3.90;0.80;;;27.90;99.90;;;;;;5013331;28;20642;-72
2023/09/20 11:45:01;;;;;;;2.03;1.15;;;27.60;99.90;;;;;;5012263;28;20691;-73
2023/09/20 11:47:48;;;;;;;2.20;1.23;;;27.50;99.90;;;;;;5011897;28;20207;-72
2023/09/20 11:50:17;;;;;;;2.00;1.00;;;27.20;99.90;;;;;;5012380;28;20293;-72
2023/09/20 11:52:47;;;;;;;6.07;1.50;;;27.70;99.90;;;;;;5012157;28;20227;-72
2023/09/20 11:55:16;;;;;;;1.75;0.85;;;28.60;99.90;;;;;;5012284;28;20210;-72
2023/09/20 11:57:45;;;;;;;4.13;1.48;;;29.40;99.90;;;;;;5011709;28;20269;-72
2023/09/20 12:00:16;;;;;;;1.45;0.90;;;29.60;99.90;;;;;;5012042;28;20213;-72
2023/09/20 12:02:44;;;;;;;1.73;1.10;;;30.10;99.90;;;;;;5012039;28;20400;-72
2023/09/20 12:05:13;;;;;;;2.17;1.00;;;30.00;99.90;;;;;;5011947;28;20676;-72
2023/09/20 12:07:42;;;;;;;6.30;0.95;;;29.70;99.90;;;;;;5011574;28;20668;-72
2023/09/20 12:10:12;;;;;;;2.53;1.00;;;29.60;99.90;;;;;;5011982;28;20234;-73
2023/09/20 12:12:40;;;;;;;2.45;1.05;;;28.90;99.90;;;;;;5011586;28;20305;-72
2023/09/20 12:15:09;;;;;;;2.58;1.30;;;28.20;99.90;;;;;;5011955;28;20306;-72
2023/09/20 12:17:37;;;;;;;2.72;1.20;;;27.50;99.90;;;;;;5010558;28;20218;-72
2023/09/20 12:20:06;;;;;;;2.08;1.20;;;27.00;99.90;;;;;;5011959;28;20219;-72
2023/09/20 12:22:34;;;;;;;3.13;0.93;;;26.70;99.90;;;;;;5011424;28;20230;-72
2023/09/20 12:25:03;;;;;;;9.85;1.50;;;26.70;99.90;;;;;;5011533;28;20213;-72
2023/09/20 12:27:32;;;;;;;1.55;1.30;;;27.00;99.90;;;;;;5017144;28;20289;-72
2023/09/20 12:30:00;;;;;;;2.60;0.98;;;26.90;99.90;;;;;;5031286;28;20206;-72
2023/09/20 12:32:28;;;;;;;1.42;1.00;;;26.80;99.90;;;;;;5031084;28;20719;-74
2023/09/20 12:34:57;;;;;;;2.90;1.33;;;26.50;99.90;;;;;;5027625;28;20671;-72
2023/09/20 12:37:25;;;;;;;4.57;1.33;;;26.70;99.90;;;;;;5030786;28;20630;-72
2023/09/20 12:39:53;;;;;;;5.38;1.30;;;26.70;99.90;;;;;;5026726;28;20210;-72
2023/09/20 12:42:21;;;;;;;1.25;1.17;;;26.60;99.90;;;;;;5032669;28;20230;-72
2023/09/20 12:44:50;;;;;;;2.67;1.00;;;26.60;99.90;;;;;;5031419;28;20229;-72
2023/09/20 12:47:19;;;;;;;1.33;1.08;;;26.80;99.90;;;;;;5025494;28;20305;-72
2023/09/20 12:49:47;;;;;;;1.98;1.30;;;27.20;99.90;;;;;;5034235;28;20288;-72
2023/09/20 12:52:17;;;;;;;1.10;1.08;;;27.70;99.90;;;;;;5028757;28;20226;-73
2023/09/20 12:54:45;;;;;;;2.72;1.30;;;28.10;99.90;;;;;;5029240;28;20202;-72
2023/09/20 12:57:13;;;;;;;5.30;1.25;;;28.00;99.90;;;;;;5026461;28;20256;-72
2023/09/20 12:59:41;;;;;;;2.97;1.10;;;27.60;99.90;;;;;;5032571;28;20234;-72
2023/09/20 13:02:11;;;;;;;1.13;1.02;;;27.10;99.90;;;;;;5030968;28;20229;-72
2023/09/20 13:04:39;;;;;;;2.33;1.40;;;26.90;99.90;;;;;;5024464;28;20211;-73
2023/09/20 13:07:08;;;;;;;4.72;1.20;;;26.80;99.90;;;;;;5010912;28;20215;-73
2023/09/20 13:09:36;;;;;;;4.65;1.23;;;26.90;99.90;;;;;;5010495;28;20203;-73
2023/09/20 13:12:05;;;;;;;0.75;0.75;;;27.10;99.90;;;;;;5011655;28;20231;-72
2023/09/20 13:14:33;;;;;;;7.95;1.13;;;27.80;99.90;;;;;;5011528;28;20207;-73
2023/09/20 13:17:02;;;;;;;3.85;1.13;;;28.40;99.90;;;;;;5011131;28;20257;-73
2023/09/20 13:19:32;;;;;;;1.73;1.00;;;28.70;99.90;;;;;;5022901;28;20218;-73
2023/09/20 13:22:01;;;;;;;3.60;1.40;;;29.20;99.90;;;;;;5031093;28;20309;-73
2023/09/20 13:24:29;;;;;;;2.35;1.30;;;29.40;99.90;;;;;;5022899;28;20707;-73
2023/09/20 13:26:57;;;;;;;0.98;0.90;;;29.70;99.90;;;;;;5030635;28;20671;-73
2023/09/20 13:29:27;;;;;;;2.65;1.10;;;29.80;99.90;;;;;;5032176;28;20198;-73
2023/09/20 13:31:55;;;;;;;3.13;1.20;;;29.80;99.90;;;;;;5034328;28;20781;-73
2023/09/20 13:34:25;;;;;;;2.28;1.02;;;30.00;99.90;;;;;;5034734;28;20288;-73
2023/09/20 13:36:56;;;;;;;1.75;1.10;;;30.20;99.90;;;;;;5034197;28;20256;-73
2023/09/20 13:39:24;;;;;;;1.63;1.05;;;30.10;99.90;;;;;;5034277;28;20321;-72
2023/09/20 13:41:53;;;;;;;1.35;1.25;;;30.50;99.90;;;;;;5034236;28;20313;-73